首页
METAR-TAF:

METAR-TAF

机场 :

本-古里安国际机场

特拉维夫 / 本·古里安, 以色列

纬度: 32-00N, 经度: 034-54E, 海拔: 40米

当前天气观测

该预报发布于23分钟前的13:50 UTC
风速10节,风向西北,在西之间变化
温度 30°C
湿度 43%
气压 1009 hPa
能见度10公里或以上
1500米以下无云,无积雨云

METAR: LLBG 191350Z 31010KT 280V350 CAVOK 30/16 Q1009 NOSIG

时间: 17:13 (14:13 UTC)

预报

该预报发布于3小时和5分钟前的11:08 UTC
预报有效从19日的 12点(UTC)到 20日的 12点(UTC)
风速10节,风向西转西北
能见度10公里或以上
少量云层高于3500英尺
成为
从 19日的 15点(UTC)到 19日的 17点(UTC)
风速5节,风向北转东北
能见度10公里或以上
1500米以下无云,无积雨云
成为
从 20日的 01点(UTC)到 20日的 03点(UTC)
风速3节,风向多变
成为
从 20日的 07点(UTC)到 20日的 09点(UTC)
风速10节,风向西北

TAF: LLBG 191108Z 1912/2012 30010KT 9999 FEW035 BECMG 1915/1917 02005KT CAVOK BECMG 2001/2003 VRB03KT BECMG 2007/2009 32010KT TX31/1912Z TN21/2003Z

超过4000个机场的气象观测和天气预报(METAR&TAF报告)。

可查询的气象台以黄色和红色小点在地图上表示。

将鼠标移到小点上方,可查看气象台名称。

然后点击查看天气观测和预报。

如需切换地图:点击带黑十字的绿色按钮放大地图;点击带横线的绿色按钮缩小地图;或者点击绿色箭头查看邻近地区的地图。


METAR-TAF: